createdAt,value
2018-03-28T00:02:15.178Z,11.43
2018-03-28T00:04:41.700Z,11.80
2018-03-28T00:07:08.106Z,10.47
2018-03-28T00:09:34.491Z,11.17
2018-03-28T00:12:00.865Z,11.03
2018-03-28T00:14:27.269Z,10.37
2018-03-28T00:16:53.709Z,11.53
2018-03-28T00:19:20.089Z,10.93
2018-03-28T00:21:46.493Z,10.60
2018-03-28T00:24:12.830Z,9.93
2018-03-28T00:26:39.182Z,10.60
2018-03-28T00:29:05.544Z,12.23
2018-03-28T00:31:31.921Z,11.97
2018-03-28T00:33:58.278Z,11.47
2018-03-28T00:36:24.722Z,11.73
2018-03-28T00:38:51.097Z,12.17
2018-03-28T00:41:17.558Z,12.53
2018-03-28T00:43:43.974Z,11.97
2018-03-28T00:46:10.389Z,12.27
2018-03-28T00:48:36.839Z,12.67
2018-03-28T01:04:29.882Z,10.53
2018-03-28T01:06:56.378Z,11.87
2018-03-28T01:09:22.762Z,13.23
2018-03-28T01:11:49.165Z,13.60
2018-03-28T01:14:15.618Z,13.90
2018-03-28T01:16:42.041Z,14.50
2018-03-28T01:19:08.478Z,13.60
2018-03-28T01:21:34.911Z,13.87
2018-03-28T01:24:01.298Z,13.73
2018-03-28T01:26:27.654Z,12.80
2018-03-28T01:28:54.032Z,13.03
2018-03-28T01:31:20.457Z,13.80
2018-03-28T01:33:46.849Z,14.27
2018-03-28T01:36:13.249Z,13.43
2018-03-28T01:38:39.653Z,13.70
2018-03-28T01:41:06.085Z,15.60
2018-03-28T01:43:32.507Z,15.47
2018-03-28T01:45:58.878Z,15.07
2018-03-28T01:48:25.291Z,15.17
2018-03-28T01:50:51.685Z,14.63
2018-03-28T01:53:18.076Z,14.03
2018-03-28T01:55:44.450Z,15.10
2018-03-28T01:58:10.837Z,13.10
2018-03-28T02:00:37.230Z,14.27
2018-03-28T02:03:03.690Z,14.57
2018-03-28T02:05:30.069Z,14.43
2018-03-28T02:07:56.454Z,13.80
2018-03-28T02:10:22.830Z,14.30
2018-03-28T02:12:49.245Z,13.10
2018-03-28T02:15:15.621Z,13.13
2018-03-28T02:17:41.981Z,13.73
2018-03-28T02:20:08.408Z,13.37
2018-03-28T02:22:34.785Z,12.97
2018-03-28T02:25:01.233Z,12.47
2018-03-28T02:27:27.621Z,11.33
2018-03-28T02:29:54.050Z,12.77
2018-03-28T02:32:20.439Z,12.27
2018-03-28T02:34:46.811Z,13.20
2018-03-28T02:37:13.242Z,12.27
2018-03-28T02:39:39.727Z,12.83
2018-03-28T02:42:06.129Z,12.77
2018-03-28T02:44:32.521Z,12.83
2018-03-28T02:46:58.971Z,13.10
2018-03-28T02:49:25.362Z,12.83
2018-03-28T02:51:51.822Z,12.77
2018-03-28T02:54:18.226Z,12.80
2018-03-28T02:56:44.582Z,12.20
2018-03-28T02:59:10.964Z,14.00
2018-03-28T03:01:37.377Z,15.07
2018-03-28T03:04:03.887Z,16.30
2018-03-28T03:06:30.306Z,17.63
2018-03-28T03:08:56.731Z,16.70
2018-03-28T03:11:23.153Z,17.93
2018-03-28T03:13:49.557Z,17.40
2018-03-28T03:16:16.053Z,17.23
2018-03-28T03:18:42.438Z,17.20
2018-03-28T03:21:08.797Z,17.30
2018-03-28T03:23:35.174Z,17.60
2018-03-28T03:26:01.558Z,16.67
2018-03-28T03:28:27.938Z,20.17
2018-03-28T03:30:54.368Z,21.13
2018-03-28T03:33:20.750Z,21.67
2018-03-28T03:35:47.107Z,21.17
2018-03-28T03:38:13.485Z,21.83
2018-03-28T03:40:39.834Z,23.30
2018-03-28T03:43:06.187Z,22.47
2018-03-28T03:45:32.534Z,22.00
2018-03-28T03:47:58.929Z,21.20
2018-03-28T03:50:25.317Z,19.03
2018-03-28T03:52:51.681Z,19.80
2018-03-28T03:55:18.057Z,20.10
2018-03-28T03:57:44.413Z,21.57
2018-03-28T04:00:10.869Z,21.40
2018-03-28T04:02:37.246Z,22.90
2018-03-28T04:05:03.646Z,22.30
2018-03-28T04:07:30.003Z,21.83
2018-03-28T04:09:56.377Z,22.97
2018-03-28T04:12:22.809Z,23.53
2018-03-28T04:14:49.163Z,23.37
2018-03-28T04:17:15.537Z,24.47
2018-03-28T04:19:41.969Z,25.87
2018-03-28T04:22:08.421Z,24.10
2018-03-28T04:24:34.838Z,25.17
2018-03-28T04:27:01.278Z,26.00
2018-03-28T04:29:27.701Z,24.90
2018-03-28T04:31:54.130Z,22.13
2018-03-28T04:34:20.478Z,23.37
2018-03-28T04:36:46.842Z,26.67
2018-03-28T04:39:13.245Z,30.33
2018-03-28T04:41:39.601Z,29.93
2018-03-28T04:44:05.989Z,24.53
2018-03-28T04:46:32.369Z,28.90
2018-03-28T04:48:58.776Z,23.43
2018-03-28T04:51:25.218Z,21.50
2018-03-28T04:53:51.665Z,25.00
2018-03-28T04:56:18.052Z,22.57
2018-03-28T04:58:44.514Z,24.43
2018-03-28T05:01:10.923Z,25.20
2018-03-28T05:03:37.317Z,24.57
2018-03-28T05:06:03.744Z,21.97
2018-03-28T05:08:30.129Z,21.00
2018-03-28T05:10:56.584Z,30.10
2018-03-28T05:13:22.993Z,31.17
2018-03-28T05:15:49.551Z,30.63
2018-03-28T05:18:15.954Z,32.20
2018-03-28T05:20:42.702Z,26.57
2018-03-28T05:23:09.178Z,28.10
2018-03-28T05:25:36.250Z,29.77
2018-03-28T05:28:02.745Z,26.37
2018-03-28T05:30:29.389Z,25.90
2018-03-28T05:32:55.907Z,23.73
2018-03-28T05:35:22.393Z,23.27
2018-03-28T05:37:48.920Z,25.77
2018-03-28T05:40:15.390Z,26.93
2018-03-28T05:42:41.793Z,28.97
2018-03-28T05:45:08.204Z,33.50
2018-03-28T05:47:34.686Z,41.47
2018-03-28T05:50:01.154Z,28.97
2018-03-28T05:52:32.076Z,24.80
2018-03-28T05:54:59.040Z,25.03
2018-03-28T05:57:25.510Z,26.70
2018-03-28T05:59:52.009Z,26.37
2018-03-28T06:02:18.462Z,25.53
2018-03-28T06:04:44.870Z,26.07
2018-03-28T06:07:11.318Z,24.00
2018-03-28T06:09:37.749Z,24.10
2018-03-28T06:12:04.212Z,24.00
2018-03-28T06:14:30.614Z,26.13
2018-03-28T06:16:57.051Z,22.73
2018-03-28T06:19:23.466Z,22.93
2018-03-28T06:21:49.921Z,31.00
2018-03-28T06:24:16.386Z,24.67
2018-03-28T06:26:42.934Z,21.43
2018-03-28T06:29:09.322Z,21.07
2018-03-28T06:31:35.697Z,23.73
2018-03-28T06:34:02.122Z,23.97
2018-03-28T06:36:28.621Z,22.40
2018-03-28T06:38:55.169Z,22.47
2018-03-28T06:41:21.540Z,19.50
2018-03-28T06:43:47.977Z,22.03
2018-03-28T06:46:14.397Z,22.93
2018-03-28T06:48:40.873Z,18.27
2018-03-28T06:51:07.462Z,20.47
2018-03-28T06:53:33.866Z,20.03
2018-03-28T06:56:00.270Z,19.20
2018-03-28T06:58:26.726Z,18.47
2018-03-28T07:00:53.178Z,17.77
2018-03-28T07:03:19.555Z,17.57
2018-03-28T07:05:46.038Z,20.37
2018-03-28T07:08:12.494Z,20.07
2018-03-28T07:10:38.870Z,20.03
2018-03-28T07:13:05.331Z,21.57
2018-03-28T07:15:31.709Z,22.77
2018-03-28T07:17:58.094Z,23.23
2018-03-28T07:20:24.551Z,25.70
2018-03-28T07:22:51.038Z,20.67
2018-03-28T07:25:17.498Z,22.00
2018-03-28T07:27:44.028Z,21.93
2018-03-28T07:30:10.487Z,25.80
2018-03-28T07:32:37.045Z,22.83
2018-03-28T07:35:03.601Z,21.67
2018-03-28T07:37:30.091Z,22.40
2018-03-28T07:39:56.628Z,26.30
2018-03-28T07:42:23.107Z,22.37
2018-03-28T07:44:49.626Z,21.43
2018-03-28T07:47:16.042Z,25.00
2018-03-28T07:49:42.466Z,22.23
2018-03-28T07:52:08.929Z,22.43
2018-03-28T07:54:35.358Z,23.40
2018-03-28T07:57:01.822Z,20.70
2018-03-28T07:59:28.227Z,20.40
2018-03-28T08:01:54.650Z,22.03
2018-03-28T08:04:21.006Z,20.40
2018-03-28T08:06:47.460Z,19.53
2018-03-28T08:09:13.990Z,20.00
2018-03-28T08:11:40.506Z,20.37
2018-03-28T08:14:06.953Z,21.47
2018-03-28T08:16:33.488Z,21.07
2018-03-28T08:18:59.857Z,18.87
2018-03-28T08:21:26.301Z,20.23
2018-03-28T08:23:52.765Z,20.30
2018-03-28T08:26:19.197Z,19.90
2018-03-28T08:28:45.624Z,21.57
2018-03-28T08:31:12.070Z,20.00
2018-03-28T08:33:38.501Z,22.70
2018-03-28T08:36:04.901Z,21.80
2018-03-28T08:38:31.309Z,20.93
2018-03-28T08:40:57.798Z,22.97
2018-03-28T08:43:24.238Z,22.73
2018-03-28T08:45:50.850Z,24.17
2018-03-28T08:48:17.417Z,22.53
2018-03-28T08:50:43.898Z,22.43
2018-03-28T08:53:10.350Z,23.43
2018-03-28T08:55:36.801Z,24.23
2018-03-28T08:58:03.234Z,22.83
2018-03-28T09:00:29.678Z,26.40
2018-03-28T09:02:56.232Z,27.00
2018-03-28T09:05:22.696Z,25.53
2018-03-28T09:07:49.162Z,24.23
2018-03-28T09:10:15.662Z,25.23
2018-03-28T09:12:42.174Z,26.10
2018-03-28T09:15:08.724Z,29.80
2018-03-28T09:17:35.161Z,26.07
2018-03-28T09:20:01.641Z,24.13
2018-03-28T09:22:28.159Z,23.20
2018-03-28T09:24:54.673Z,26.13
2018-03-28T09:27:21.205Z,31.50
2018-03-28T09:29:47.626Z,31.47
2018-03-28T09:32:14.373Z,29.00
2018-03-28T09:34:40.833Z,30.27
2018-03-28T09:37:07.318Z,26.10
2018-03-28T09:39:33.758Z,23.70
2018-03-28T09:42:00.122Z,26.00
2018-03-28T09:44:26.573Z,25.23
2018-03-28T09:46:54.848Z,24.80
2018-03-28T09:49:21.981Z,23.20
2018-03-28T09:51:48.577Z,21.87
2018-03-28T09:54:14.963Z,20.80
2018-03-28T09:56:41.442Z,21.93
2018-03-28T09:59:07.815Z,22.93
2018-03-28T10:01:34.290Z,22.37
2018-03-28T10:04:12.779Z,23.50
2018-03-28T10:06:40.061Z,25.30
2018-03-28T10:09:06.494Z,26.17
2018-03-28T10:11:33.066Z,25.67
2018-03-28T10:13:59.786Z,26.43
2018-03-28T10:16:26.513Z,25.73
2018-03-28T10:18:53.113Z,25.93
2018-03-28T10:21:19.541Z,25.93
2018-03-28T10:23:46.114Z,23.13
2018-03-28T10:26:12.770Z,22.83
2018-03-28T10:28:39.228Z,24.77
2018-03-28T10:31:05.717Z,25.33
2018-03-28T10:33:34.062Z,24.33
2018-03-28T10:36:00.522Z,26.87
2018-03-28T10:38:27.054Z,27.47
2018-03-28T10:40:53.474Z,26.43
2018-03-28T10:43:20.030Z,27.90
2018-03-28T10:45:46.451Z,28.27
2018-03-28T10:48:12.870Z,25.30
2018-03-28T10:50:39.373Z,27.27
2018-03-28T10:53:05.778Z,25.57
2018-03-28T10:55:32.246Z,27.07
2018-03-28T10:57:58.946Z,27.93
2018-03-28T11:00:25.339Z,28.37
2018-03-28T11:02:53.917Z,27.73
2018-03-28T11:05:23.708Z,26.43
2018-03-28T11:07:50.437Z,27.67
2018-03-28T11:10:16.890Z,29.63
2018-03-28T11:12:43.466Z,27.13
2018-03-28T11:15:09.873Z,25.63
2018-03-28T11:17:37.456Z,26.10
2018-03-28T11:20:03.969Z,28.03
2018-03-28T11:22:30.438Z,30.13
2018-03-28T11:24:56.938Z,35.93
2018-03-28T11:27:23.461Z,28.60
2018-03-28T11:29:49.957Z,30.83
2018-03-28T11:32:16.346Z,30.13
2018-03-28T11:34:42.932Z,27.10
2018-03-28T11:37:09.400Z,25.87
2018-03-28T11:39:35.991Z,28.40
2018-03-28T11:42:02.463Z,36.00
2018-03-28T11:44:28.917Z,37.57
2018-03-28T11:46:55.372Z,37.57
2018-03-28T11:49:21.814Z,39.00
2018-03-28T11:51:48.246Z,42.73
2018-03-28T11:54:14.695Z,35.10
2018-03-28T11:56:41.146Z,26.23
2018-03-28T11:59:07.643Z,26.73
2018-03-28T12:01:34.173Z,27.97
2018-03-28T12:04:00.659Z,28.23
2018-03-28T12:06:27.101Z,30.80
2018-03-28T12:08:53.538Z,28.03
2018-03-28T12:11:20.051Z,29.07
2018-03-28T12:13:46.449Z,25.33
2018-03-28T12:16:12.834Z,26.97
2018-03-28T12:18:39.366Z,24.83
2018-03-28T12:21:05.774Z,26.87
2018-03-28T12:23:32.283Z,25.63
2018-03-28T12:25:58.780Z,21.67
2018-03-28T12:28:27.095Z,19.33
2018-03-28T12:30:53.566Z,20.70
2018-03-28T12:33:23.060Z,22.10
2018-03-28T12:35:51.330Z,18.57
2018-03-28T12:38:21.566Z,17.53
2018-03-28T12:40:55.874Z,21.87
2018-03-28T12:43:32.065Z,15.63
2018-03-28T12:46:05.182Z,17.40
2018-03-28T12:48:34.289Z,17.23
2018-03-28T12:51:01.962Z,16.93
2018-03-28T12:53:30.164Z,19.00
2018-03-28T12:55:56.950Z,21.03
2018-03-28T12:58:23.474Z,19.20
2018-03-28T13:00:51.754Z,19.87
2018-03-28T13:03:18.290Z,18.90
2018-03-28T13:05:44.659Z,21.50
2018-03-28T13:08:11.113Z,19.67
2018-03-28T13:10:37.512Z,18.97
2018-03-28T13:13:17.986Z,19.10
2018-03-28T13:15:44.465Z,19.83
2018-03-28T13:18:11.012Z,16.43
2018-03-28T13:20:37.542Z,14.67
2018-03-28T13:23:03.946Z,16.10
2018-03-28T13:25:30.548Z,17.87
2018-03-28T13:27:56.949Z,18.40
2018-03-28T13:30:23.412Z,18.63
2018-03-28T13:32:49.884Z,17.07
2018-03-28T13:35:16.249Z,15.43
2018-03-28T13:37:42.764Z,17.83
2018-03-28T13:40:09.189Z,16.50
2018-03-28T13:42:35.626Z,14.13
2018-03-28T13:45:02.094Z,15.70
2018-03-28T13:47:28.517Z,33.90
2018-03-28T13:49:55.018Z,13.50
2018-03-28T13:52:21.545Z,15.53
2018-03-28T13:54:47.968Z,14.43
2018-03-28T13:57:14.377Z,15.03
2018-03-28T13:59:40.872Z,12.87
2018-03-28T14:02:07.333Z,15.60
2018-03-28T14:04:34.609Z,16.57
2018-03-28T14:07:07.009Z,14.37
2018-03-28T14:09:35.556Z,11.80
2018-03-28T14:12:05.561Z,14.05
2018-03-28T14:14:35.737Z,13.87
2018-03-28T14:17:02.334Z,19.37
2018-03-28T14:19:29.920Z,15.50
2018-03-28T14:21:56.308Z,13.77
2018-03-28T14:24:22.782Z,14.13
2018-03-28T14:26:49.362Z,13.70
2018-03-28T14:29:15.930Z,12.87
2018-03-28T14:31:42.409Z,13.33
2018-03-28T14:34:08.854Z,14.97
2018-03-28T14:36:35.344Z,11.63
2018-03-28T14:39:01.726Z,9.93
2018-03-28T14:41:28.481Z,10.47
2018-03-28T14:43:54.861Z,12.27
2018-03-28T14:46:21.350Z,11.67
2018-03-28T14:48:47.775Z,10.97
2018-03-28T14:51:14.194Z,8.60
2018-03-28T14:53:40.749Z,10.43
2018-03-28T14:56:07.233Z,14.50
2018-03-28T14:58:33.777Z,12.90
2018-03-28T15:01:00.228Z,11.87
2018-03-28T15:03:26.609Z,11.37
2018-03-28T15:05:53.016Z,14.57
2018-03-28T15:08:19.447Z,12.57
2018-03-28T15:10:45.842Z,30.40
2018-03-28T15:13:12.312Z,21.80
2018-03-28T15:15:38.748Z,44.90
2018-03-28T15:18:05.118Z,46.53
2018-03-28T15:20:31.656Z,29.67
2018-03-28T15:22:58.114Z,12.43
2018-03-28T15:25:24.670Z,21.23
2018-03-28T15:27:51.201Z,51.63
2018-03-28T15:30:17.655Z,31.60
2018-03-28T15:32:44.126Z,19.27
2018-03-28T15:35:10.549Z,15.53
2018-03-28T15:37:36.986Z,15.13
2018-03-28T15:40:03.473Z,17.20
2018-03-28T15:42:29.998Z,18.67
2018-03-28T15:44:56.847Z,17.70
2018-03-28T15:47:23.469Z,13.70
2018-03-28T15:49:49.833Z,16.17
2018-03-28T15:52:16.280Z,22.30
2018-03-28T15:54:42.714Z,15.73
2018-03-28T15:57:09.108Z,17.13
2018-03-28T15:59:35.526Z,18.27
2018-03-28T16:02:01.933Z,18.60
2018-03-28T16:04:28.369Z,19.90
2018-03-28T16:06:54.754Z,21.93
2018-03-28T16:09:21.133Z,17.77
2018-03-28T16:11:47.605Z,16.17
2018-03-28T16:14:13.993Z,16.90
2018-03-28T16:16:40.429Z,14.67
2018-03-28T16:19:06.965Z,16.53
2018-03-28T16:21:33.361Z,15.53
2018-03-28T16:23:59.735Z,17.30
2018-03-28T16:26:26.167Z,17.13
2018-03-28T16:28:52.559Z,19.17
2018-03-28T16:31:18.973Z,16.80
2018-03-28T16:33:45.393Z,16.57
2018-03-28T16:36:11.819Z,17.83
2018-03-28T16:38:38.261Z,19.00
2018-03-28T16:41:04.746Z,19.13
2018-03-28T16:43:31.149Z,18.60
2018-03-28T16:45:57.610Z,17.87
2018-03-28T16:48:24.118Z,17.83
2018-03-28T16:50:50.602Z,19.03
2018-03-28T16:53:16.989Z,16.20
2018-03-28T16:55:43.429Z,16.70
2018-03-28T16:58:09.848Z,15.13
2018-03-28T17:00:36.297Z,16.90
2018-03-28T17:03:02.765Z,20.67
2018-03-28T17:05:29.145Z,23.23
2018-03-28T17:07:55.554Z,23.07
2018-03-28T17:10:22.014Z,22.73
2018-03-28T17:12:48.518Z,21.17
2018-03-28T17:15:14.970Z,31.20
2018-03-28T17:17:41.423Z,31.53
2018-03-28T17:20:07.865Z,33.90
2018-03-28T17:22:34.242Z,35.60
2018-03-28T17:25:00.634Z,35.63
2018-03-28T17:27:27.123Z,35.97
2018-03-28T17:29:53.565Z,37.17
2018-03-28T17:32:19.958Z,37.90
2018-03-28T17:34:46.401Z,39.47
2018-03-28T17:37:12.800Z,41.30
2018-03-28T17:39:39.222Z,55.10
2018-03-28T17:42:05.654Z,59.13
2018-03-28T17:44:32.998Z,54.13
2018-03-28T17:46:59.442Z,56.27
2018-03-28T17:49:25.797Z,59.63
2018-03-28T17:51:52.318Z,54.23
2018-03-28T17:54:18.694Z,42.77
2018-03-28T17:56:45.061Z,32.33
2018-03-28T17:59:11.494Z,30.87
2018-03-28T18:01:37.902Z,26.53
2018-03-28T18:04:04.381Z,27.50
2018-03-28T18:06:30.795Z,28.03
2018-03-28T18:08:57.390Z,30.50
2018-03-28T18:11:23.766Z,32.80
2018-03-28T18:13:50.253Z,34.57
2018-03-28T18:16:17.162Z,44.23
2018-03-28T18:18:44.777Z,46.23
2018-03-28T18:21:11.150Z,52.17
2018-03-28T18:23:37.559Z,59.03
2018-03-28T18:26:04.049Z,64.20
2018-03-28T18:28:30.567Z,66.17
2018-03-28T18:30:57.025Z,65.17
2018-03-28T18:33:23.443Z,66.40
2018-03-28T18:35:49.820Z,71.77
2018-03-28T18:38:16.351Z,76.63
2018-03-28T18:40:42.748Z,75.73
2018-03-28T18:43:09.174Z,76.17
2018-03-28T18:45:35.595Z,76.83
2018-03-28T18:48:01.995Z,70.20
2018-03-28T18:50:28.559Z,65.33
2018-03-28T18:52:54.979Z,63.20
2018-03-28T18:55:21.641Z,63.40
2018-03-28T18:57:48.078Z,67.80
2018-03-28T19:00:14.549Z,68.43
2018-03-28T19:02:40.945Z,68.03
2018-03-28T19:05:07.333Z,68.63
2018-03-28T19:07:33.841Z,67.17
2018-03-28T19:10:00.246Z,68.13
2018-03-28T19:12:26.691Z,62.10
2018-03-28T19:14:53.165Z,65.10
2018-03-28T19:17:19.616Z,65.03
2018-03-28T19:19:46.129Z,66.27
2018-03-28T19:22:12.545Z,62.80
2018-03-28T19:24:38.993Z,64.13
2018-03-28T19:27:05.428Z,61.27
2018-03-28T19:29:31.909Z,60.20
2018-03-28T19:31:58.341Z,58.20
2018-03-28T19:34:24.766Z,57.53
2018-03-28T19:36:51.213Z,65.47
2018-03-28T19:39:17.637Z,62.13
2018-03-28T19:41:44.051Z,62.63
2018-03-28T19:44:11.135Z,61.50
2018-03-28T19:46:37.552Z,61.50
2018-03-28T19:49:03.953Z,63.03
2018-03-28T19:51:30.376Z,61.87
2018-03-28T19:53:56.793Z,61.90
2018-03-28T19:56:23.217Z,60.57
2018-03-28T19:58:49.661Z,62.77
2018-03-28T20:01:16.050Z,68.70
2018-03-28T20:03:42.500Z,66.20
2018-03-28T20:06:08.984Z,68.60
2018-03-28T20:08:35.357Z,70.57
2018-03-28T20:11:02.576Z,72.63
2018-03-28T20:13:29.857Z,66.50
2018-03-28T20:15:57.438Z,64.27
2018-03-28T20:18:24.062Z,61.20
2018-03-28T20:20:50.426Z,64.03
2018-03-28T20:23:16.964Z,64.50
2018-03-28T20:25:43.458Z,64.20
2018-03-28T20:28:09.873Z,64.20
2018-03-28T20:30:36.253Z,63.43
2018-03-28T20:33:02.834Z,63.00
2018-03-28T20:35:29.307Z,58.90
2018-03-28T20:37:55.705Z,60.10
2018-03-28T20:40:22.186Z,58.13
2018-03-28T20:42:48.609Z,53.83
2018-03-28T20:45:15.094Z,55.67
2018-03-28T20:47:41.457Z,56.77
2018-03-28T20:50:07.902Z,55.70
2018-03-28T20:52:34.294Z,53.20
2018-03-28T20:55:00.694Z,46.97
2018-03-28T20:57:27.103Z,41.13
2018-03-28T20:59:53.580Z,44.43
2018-03-28T21:02:19.990Z,50.50
2018-03-28T21:04:46.538Z,49.30
2018-03-28T21:07:12.921Z,48.93
2018-03-28T21:09:39.323Z,51.90
2018-03-28T21:12:05.694Z,47.03
2018-03-28T21:14:32.106Z,43.87
2018-03-28T21:16:58.481Z,40.40
2018-03-28T21:19:24.843Z,36.67
2018-03-28T21:21:51.416Z,33.97
2018-03-28T21:24:17.789Z,28.87
2018-03-28T21:26:44.153Z,28.13
2018-03-28T21:29:10.518Z,28.23
2018-03-28T21:31:36.913Z,28.50
2018-03-28T21:34:03.306Z,27.43
2018-03-28T21:36:29.775Z,28.10
2018-03-28T21:38:56.349Z,29.57
2018-03-28T21:41:22.722Z,30.60
2018-03-28T21:43:49.104Z,30.03
2018-03-28T21:46:15.473Z,31.17
2018-03-28T21:48:41.838Z,32.43
2018-03-28T21:51:08.213Z,31.57
2018-03-28T21:53:34.601Z,28.97
2018-03-28T21:56:00.965Z,27.47
2018-03-28T21:58:27.330Z,28.03
2018-03-28T22:00:53.720Z,27.07
2018-03-28T22:03:20.117Z,28.50
2018-03-28T22:05:46.494Z,28.03
2018-03-28T22:08:12.877Z,27.93
2018-03-28T22:10:39.301Z,27.13
2018-03-28T22:13:05.665Z,27.37
2018-03-28T22:15:32.017Z,25.40
2018-03-28T22:17:58.381Z,25.57
2018-03-28T22:20:24.749Z,24.93
2018-03-28T22:22:51.133Z,25.27
2018-03-28T22:25:17.546Z,24.13
2018-03-28T22:27:44.238Z,24.07
2018-03-28T22:30:10.748Z,22.53
2018-03-28T22:32:37.206Z,22.10
2018-03-28T22:35:03.585Z,20.70
2018-03-28T22:37:30.008Z,20.43
2018-03-28T22:39:56.445Z,19.80
2018-03-28T22:42:22.801Z,19.53
2018-03-28T22:44:49.156Z,19.43
2018-03-28T22:47:15.560Z,17.73
2018-03-28T22:49:41.906Z,17.57
2018-03-28T22:52:08.285Z,17.60
2018-03-28T22:54:34.634Z,18.10
2018-03-28T22:57:01.010Z,17.37
2018-03-28T22:59:27.386Z,18.33
2018-03-28T23:01:53.750Z,18.40
2018-03-28T23:04:20.122Z,19.03
2018-03-28T23:06:46.490Z,19.57
2018-03-28T23:09:12.845Z,18.50
2018-03-28T23:11:39.239Z,20.07
2018-03-28T23:14:05.604Z,20.10
2018-03-28T23:16:32.015Z,20.20
2018-03-28T23:18:58.378Z,21.03
2018-03-28T23:21:24.756Z,19.93
2018-03-28T23:23:51.132Z,19.80
2018-03-28T23:26:17.506Z,20.80
2018-03-28T23:28:43.862Z,20.50
2018-03-28T23:31:10.295Z,22.33
2018-03-28T23:33:36.698Z,21.10
2018-03-28T23:36:03.106Z,21.97
2018-03-28T23:38:29.513Z,20.10
2018-03-28T23:40:56.005Z,22.00
2018-03-28T23:43:22.368Z,19.80
2018-03-28T23:45:48.877Z,19.93
2018-03-28T23:48:15.246Z,20.40
2018-03-28T23:50:41.777Z,20.97
2018-03-28T23:53:08.198Z,20.73
2018-03-28T23:55:34.582Z,22.27
2018-03-28T23:58:00.960Z,21.90
